CheckWX is a tool to help pilots better visualize weather data.  It is not intended as a substitute for an official pre-flight weather briefing.

22:15:25 UTC

KNYG METAR
Quantico MCAF / Turner Field Airport
Quantico, Virginia, USA
Current

19 mins ago

KNYG 082156Z AUTO 33008G21KT 10SM CLR 26/10 A2959 RMK AO2 SLP020 T02560100
Observed
Apr-8 @ 21:56 UTC
Wind
  • 330° at 8 KTS
  • Gusting to 21 KTS
Visibility
Flight Rules
VFR
Cloud Levels
  • Clear skies
Temperature
26°C / 79°F
Dewpoint
10°C / 50°F
Humidity
37%
Altimeter
29.59" Hg
Pressure
1002.02 hPa
Previous

4 hours ago

KNYG 081756Z 30008KT 260V360 10SM BKN055 26/12 A2960 RMK AO2 SLP023 T02560117 10256 20144 56015
Observed
Apr-8 @ 17:56 UTC
Wind
  • 300° at 8 KTS
Visibility
Flight Rules
VFR
Cloud Levels
  • Broken at 5,500' AGL
Temperature
26°C / 79°F
Dewpoint
12°C / 54°F
Humidity
42%
Altimeter
29.6" Hg
Pressure
1002.42 hPa
Previous

5 hours ago

KNYG 081656Z 33011G16KT 10SM SCT080 BKN180 24/12 A2961 RMK AO2 SLP027 T02440117
Observed
Apr-8 @ 16:56 UTC
Wind
  • 330° at 11 KTS
  • Gusting to 16 KTS
Visibility
Flight Rules
VFR
Cloud Levels
  • Scattered at 8,000' AGL
  • Broken at 18,000' AGL
Temperature
24°C / 75°F
Dewpoint
12°C / 54°F
Humidity
47%
Altimeter
29.61" Hg
Pressure
1002.72 hPa